Moscow, ID (83843)

2:16 AM PST on February 13, 2016 (GMT -0800)
East Side of Moscow | | Change Station
CLOSE
Current Station
Personal Weather Station
Location: Moscow, ID
Elevation: 2660 ft
Nearby Weather Stations

Elev 2660 ft 46.74 °N, 116.98 °W | Updated 9 seconds ago

Overcast
Overcast
39.7 °F
Feels Like 40 °F
N
0.0
Wind Variable Wind from ENE
Gusts 2.0 mph

Today
High -- | Low -- °F
--% Chance of Precip.
Yesterday
High -- | Low -- °F
Precip. -- in
Pressure 30.18 in
Visibility 10.0 miles
Clouds Few 2200 ft
Mostly Cloudy 2900 ft
Overcast 3300 ft
Windchill 40 °F
Dew Point 36 °F
Humidity 86%
Rainfall 0.00 in
Snow Depth Not available.
6:55 AM 5:09 PM
Waxing Crescent, 29% visible
METAR KPUW 130953Z AUTO 24012G20KT 10SM FEW022 BKN029 OVC033 06/02 A3016 RMK AO2 SLP220 T00560022
Pressure 30.18 in
Visibility 10.0 miles
Clouds Few 2200 ft
Mostly Cloudy 2900 ft
Overcast 3300 ft
Windchill 40 °F
Dew Point 36 °F
Humidity 86%
Rainfall 0.00 in
Snow Depth Not available.
6:55 AM 5:09 PM
Waxing Crescent, 29% visible
METAR KPUW 130953Z AUTO 24012G20KT 10SM FEW022 BKN029 OVC033 06/02 A3016 RMK AO2 SLP220 T00560022

10-Day Weather Forecast

Almanac

Astronomy

Feb. 13, 2016 Rise Set
Actual Time
Civil Twilight
Nautical Twilight
Astronomical Twilight
Moon
Length of Visible Light
Length of Day
Tomorrow will be .
, % of the Moon is Illuminated

Today's Extremes

State Highs State Lows

Community

WunderPhotos

Upload Photos

1,892,536 photos uploaded!

WunderBlog® & News

Nearby

Air Quality

  Air Quality AQ Index Pollutant
Not available.

Snow Depth

Station Depth Elevation

Earthquake Activity

City Distance Mag. Time & Date
Minimum magnitude displayed is 2.5.

Coastal Water Temperatures

Place Temperature

Stations

Nearby Weather Stations

Station Location Temp. Windchill Dew Point Humidity Wind Precip. Elev Updated Type
                   

Watches & Warnings

There are currently no watches in effect.